createdAt,value
2023-02-26T00:01:29.168Z,46.02
2023-02-26T00:03:58.253Z,45.62
2023-02-26T00:06:26.407Z,45.27
2023-02-26T00:11:43.859Z,45.62
2023-02-26T00:14:30.616Z,45.33
2023-02-26T00:17:34.288Z,45.13
2023-02-26T00:20:01.129Z,44.80
2023-02-26T00:22:27.935Z,45.35
2023-02-26T00:24:54.528Z,45.90
2023-02-26T00:27:21.082Z,45.51
2023-02-26T00:29:48.103Z,45.93
2023-02-26T00:32:16.542Z,45.99
2023-02-26T00:34:44.220Z,45.63
2023-02-26T00:37:57.832Z,45.48
2023-02-26T00:40:44.546Z,45.06
2023-02-26T00:43:22.987Z,44.98
2023-02-26T00:46:09.666Z,44.87
2023-02-26T00:48:44.983Z,44.58
2023-02-26T00:51:29.576Z,43.86
2023-02-26T00:54:12.014Z,44.40
2023-02-26T00:56:39.701Z,44.95
2023-02-26T00:59:06.314Z,45.34
2023-02-26T01:01:32.902Z,45.77
2023-02-26T01:04:00.044Z,46.97
2023-02-26T01:06:33.367Z,47.19
2023-02-26T01:09:10.856Z,47.49
2023-02-26T01:11:37.729Z,47.71
2023-02-26T01:14:05.122Z,48.04
2023-02-26T01:16:44.535Z,48.20
2023-02-26T01:19:28.219Z,49.03
2023-02-26T01:22:05.260Z,48.75
2023-02-26T01:24:36.377Z,49.23
2023-02-26T01:27:03.358Z,50.68
2023-02-26T01:29:30.035Z,50.38
2023-02-26T01:32:19.283Z,49.35
2023-02-26T01:34:59.843Z,49.68
2023-02-26T01:37:47.564Z,50.69
2023-02-26T01:40:35.966Z,51.19
2023-02-26T01:43:25.496Z,50.67
2023-02-26T01:46:05.302Z,51.30
2023-02-26T01:48:56.725Z,51.62
2023-02-26T01:51:55.348Z,51.87
2023-02-26T01:54:34.479Z,51.10
2023-02-26T01:57:21.220Z,51.55
2023-02-26T01:59:51.818Z,50.87
2023-02-26T02:02:22.362Z,51.70
2023-02-26T02:04:50.015Z,52.68
2023-02-26T02:07:17.150Z,52.67
2023-02-26T02:09:43.642Z,52.74
2023-02-26T02:12:22.059Z,53.02
2023-02-26T02:15:22.080Z,52.48
2023-02-26T02:18:05.345Z,53.39
2023-02-26T02:20:57.223Z,53.58
2023-02-26T02:23:42.899Z,53.74
2023-02-26T02:26:24.835Z,54.12
2023-02-26T02:29:06.856Z,54.08
2023-02-26T02:31:42.303Z,54.83
2023-02-26T02:34:18.190Z,56.33
2023-02-26T02:37:11.743Z,56.34
2023-02-26T02:39:42.597Z,56.11
2023-02-26T02:42:27.372Z,56.27
2023-02-26T02:45:02.893Z,56.67
2023-02-26T02:47:35.223Z,56.35
2023-02-26T02:50:11.866Z,57.04
2023-02-26T02:52:54.233Z,56.63
2023-02-26T02:55:32.841Z,56.08
2023-02-26T02:58:09.900Z,55.92
2023-02-26T03:00:43.742Z,55.97
2023-02-26T03:03:45.745Z,55.36
2023-02-26T03:06:13.002Z,55.82
2023-02-26T03:08:42.908Z,56.17
2023-02-26T03:11:10.073Z,56.29
2023-02-26T03:13:39.458Z,55.36
2023-02-26T03:16:47.825Z,54.77
2023-02-26T03:19:29.212Z,55.24
2023-02-26T03:22:18.878Z,54.15
2023-02-26T03:25:17.358Z,53.27
2023-02-26T03:27:48.753Z,52.07
2023-02-26T03:30:15.217Z,52.21
2023-02-26T03:33:10.441Z,51.61
2023-02-26T03:35:59.106Z,51.16
2023-02-26T03:38:51.755Z,51.50
2023-02-26T03:41:28.066Z,50.18
2023-02-26T03:44:01.232Z,50.57
2023-02-26T03:46:37.939Z,50.89
2023-02-26T03:49:18.482Z,50.85
2023-02-26T03:51:46.817Z,49.74
2023-02-26T03:54:25.900Z,49.01
2023-02-26T03:56:53.560Z,50.01
2023-02-26T03:59:20.757Z,49.54
2023-02-26T04:01:51.308Z,51.57
2023-02-26T04:04:34.405Z,52.75
2023-02-26T04:07:02.894Z,52.34
2023-02-26T04:09:29.842Z,52.53
2023-02-26T04:11:58.508Z,52.35
2023-02-26T04:14:25.010Z,53.25
2023-02-26T04:16:51.513Z,53.07
2023-02-26T04:19:18.059Z,52.47
2023-02-26T04:21:44.775Z,52.38
2023-02-26T04:24:11.481Z,53.10
2023-02-26T04:26:37.998Z,54.08
2023-02-26T04:29:04.535Z,54.26
2023-02-26T04:31:31.063Z,53.87
2023-02-26T04:33:57.561Z,53.89
2023-02-26T04:36:24.457Z,54.11
2023-02-26T04:38:51.199Z,54.91
2023-02-26T04:41:17.747Z,55.10
2023-02-26T04:43:46.594Z,54.78
2023-02-26T04:46:13.171Z,54.25
2023-02-26T04:48:42.506Z,54.78
2023-02-26T04:51:08.983Z,55.42
2023-02-26T04:53:35.483Z,54.55
2023-02-26T04:56:02.139Z,54.09
2023-02-26T04:58:28.675Z,55.26
2023-02-26T05:00:56.861Z,55.47
2023-02-26T05:03:23.390Z,53.72
2023-02-26T05:05:50.051Z,53.51
2023-02-26T05:08:16.576Z,53.58
2023-02-26T05:10:43.232Z,53.63
2023-02-26T05:13:09.762Z,54.43
2023-02-26T05:15:36.546Z,54.68
2023-02-26T05:18:03.223Z,53.03
2023-02-26T05:20:29.802Z,53.59
2023-02-26T05:22:56.571Z,53.16
2023-02-26T05:25:23.548Z,54.29
2023-02-26T05:27:50.060Z,53.32
2023-02-26T05:30:16.873Z,54.34
2023-02-26T05:32:43.723Z,53.58
2023-02-26T05:35:11.524Z,53.49
2023-02-26T05:37:38.822Z,53.98
2023-02-26T05:40:07.892Z,53.52
2023-02-26T05:42:34.437Z,53.63
2023-02-26T05:45:01.050Z,52.64
2023-02-26T05:47:27.580Z,52.09
2023-02-26T05:49:54.131Z,51.62
2023-02-26T05:52:20.655Z,50.65
2023-02-26T05:54:47.184Z,50.80
2023-02-26T05:57:13.993Z,50.11
2023-02-26T05:59:40.459Z,49.74
2023-02-26T06:02:07.094Z,48.89
2023-02-26T06:04:33.914Z,49.37
2023-02-26T06:07:01.308Z,50.00
2023-02-26T06:09:27.834Z,50.64
2023-02-26T06:11:54.354Z,51.01
2023-02-26T06:14:20.897Z,50.59
2023-02-26T06:16:47.508Z,50.57
2023-02-26T06:19:14.075Z,51.46
2023-02-26T06:21:40.572Z,51.78
2023-02-26T06:24:07.436Z,51.54
2023-02-26T06:26:34.146Z,51.76
2023-02-26T06:29:00.752Z,51.50
2023-02-26T06:31:27.296Z,50.36
2023-02-26T06:33:53.821Z,51.11
2023-02-26T06:36:20.361Z,51.20
2023-02-26T06:38:46.852Z,50.47
2023-02-26T06:41:15.849Z,49.55
2023-02-26T06:43:45.013Z,48.59
2023-02-26T06:46:11.740Z,48.47
2023-02-26T06:48:38.396Z,47.37
2023-02-26T06:51:07.371Z,46.37
2023-02-26T06:53:33.960Z,46.90
2023-02-26T06:56:00.454Z,46.39
2023-02-26T06:58:26.952Z,45.81
2023-02-26T07:00:53.462Z,45.96
2023-02-26T07:03:19.978Z,45.39
2023-02-26T07:05:46.478Z,45.91
2023-02-26T07:08:14.110Z,45.02
2023-02-26T07:10:41.931Z,45.14
2023-02-26T07:13:08.596Z,45.12
2023-02-26T07:15:35.105Z,46.12
2023-02-26T07:18:01.568Z,45.12
2023-02-26T07:20:28.681Z,45.13
2023-02-26T07:22:55.511Z,45.32
2023-02-26T07:25:22.053Z,45.25
2023-02-26T07:31:09.797Z,46.18
2023-02-26T07:33:36.322Z,46.68
2023-02-26T07:36:02.797Z,46.95
2023-02-26T07:38:29.330Z,46.86
2023-02-26T07:40:56.348Z,46.71
2023-02-26T07:43:24.324Z,46.89
2023-02-26T07:45:52.341Z,46.24
2023-02-26T07:48:19.278Z,46.24
2023-02-26T07:50:45.890Z,47.10
2023-02-26T07:53:12.622Z,47.10
2023-02-26T07:55:39.092Z,51.12
2023-02-26T07:58:05.592Z,49.82
2023-02-26T08:00:32.039Z,48.96
2023-02-26T08:03:01.366Z,48.70
2023-02-26T08:05:30.057Z,49.23
2023-02-26T08:07:56.728Z,49.04
2023-02-26T08:10:23.585Z,49.13
2023-02-26T08:12:50.230Z,49.96
2023-02-26T08:15:16.814Z,51.77
2023-02-26T08:17:43.464Z,52.87
2023-02-26T08:20:11.330Z,52.19
2023-02-26T08:22:38.401Z,51.79
2023-02-26T08:25:05.365Z,51.60
2023-02-26T08:27:31.858Z,51.83
2023-02-26T08:29:58.392Z,52.03
2023-02-26T08:32:27.633Z,52.15
2023-02-26T08:34:54.137Z,51.59
2023-02-26T08:37:20.912Z,50.24
2023-02-26T08:39:47.417Z,50.24
2023-02-26T08:42:13.968Z,49.97
2023-02-26T08:44:40.524Z,49.20
2023-02-26T08:47:07.009Z,48.62
2023-02-26T08:49:56.328Z,48.33
2023-02-26T08:52:21.047Z,48.26
2023-02-26T08:54:47.850Z,48.25
2023-02-26T08:57:14.405Z,47.51
2023-02-26T08:59:40.874Z,47.99
2023-02-26T09:02:07.570Z,48.11
2023-02-26T09:04:34.047Z,48.28
2023-02-26T09:07:06.161Z,49.22
2023-02-26T09:09:32.696Z,48.55
2023-02-26T09:11:59.260Z,47.74
2023-02-26T09:14:25.764Z,48.08
2023-02-26T09:16:52.251Z,47.69
2023-02-26T09:19:18.780Z,49.25
2023-02-26T09:21:45.265Z,51.56
2023-02-26T09:24:11.742Z,49.75
2023-02-26T09:26:39.580Z,47.90
2023-02-26T09:29:06.013Z,47.29
2023-02-26T09:31:32.716Z,51.03
2023-02-26T09:34:01.917Z,49.72
2023-02-26T09:36:28.887Z,47.63
2023-02-26T09:38:55.467Z,46.87
2023-02-26T09:41:29.819Z,47.88
2023-02-26T09:44:25.520Z,47.09
2023-02-26T09:47:13.686Z,46.58
2023-02-26T09:50:17.066Z,46.14
2023-02-26T09:53:25.847Z,46.57
2023-02-26T09:55:58.056Z,46.87
2023-02-26T09:58:30.072Z,46.26
2023-02-26T10:01:24.899Z,46.55
2023-02-26T10:04:07.875Z,46.69
2023-02-26T10:06:57.936Z,47.36
2023-02-26T10:09:37.858Z,47.00
2023-02-26T10:12:14.798Z,46.64
2023-02-26T10:14:50.496Z,46.52
2023-02-26T10:17:32.824Z,46.28
2023-02-26T10:20:25.506Z,46.75
2023-02-26T10:23:49.987Z,45.79
2023-02-26T10:26:25.296Z,45.38
2023-02-26T10:29:08.168Z,45.43
2023-02-26T10:31:43.424Z,44.65
2023-02-26T10:34:37.542Z,44.35
2023-02-26T10:37:12.717Z,44.93
2023-02-26T10:39:48.394Z,45.04
2023-02-26T10:42:22.572Z,44.38
2023-02-26T10:45:25.973Z,43.71
2023-02-26T10:48:21.491Z,41.86
2023-02-26T10:50:54.389Z,42.50
2023-02-26T10:53:22.418Z,42.26
2023-02-26T10:56:15.950Z,42.54
2023-02-26T10:58:42.592Z,42.87
2023-02-26T11:01:19.604Z,42.76
2023-02-26T11:04:00.514Z,42.46
2023-02-26T11:06:31.510Z,42.20
2023-02-26T11:09:01.001Z,41.78
2023-02-26T11:11:46.815Z,41.51
2023-02-26T11:14:15.503Z,41.43
2023-02-26T11:16:50.647Z,41.25
2023-02-26T11:19:20.408Z,41.47
2023-02-26T11:21:47.592Z,41.48
2023-02-26T11:24:28.763Z,41.68
2023-02-26T11:26:58.745Z,41.67
2023-02-26T11:29:26.061Z,41.45
2023-02-26T11:31:55.702Z,40.88
2023-02-26T11:34:26.955Z,40.78
2023-02-26T11:36:58.462Z,39.99
2023-02-26T11:39:35.958Z,40.77
2023-02-26T11:42:04.944Z,40.14
2023-02-26T11:44:40.199Z,39.63
2023-02-26T11:47:21.598Z,39.20
2023-02-26T11:49:54.987Z,38.41
2023-02-26T11:52:34.946Z,38.65
2023-02-26T11:55:18.535Z,37.44
2023-02-26T11:57:53.471Z,37.39
2023-02-26T12:00:25.474Z,37.20
2023-02-26T12:02:59.982Z,37.41
2023-02-26T12:05:26.656Z,37.25
2023-02-26T12:07:54.079Z,37.73
2023-02-26T12:10:38.116Z,38.13
2023-02-26T12:13:07.865Z,37.87
2023-02-26T12:16:09.716Z,37.10
2023-02-26T12:18:55.125Z,38.01
2023-02-26T12:21:49.730Z,37.78
2023-02-26T12:24:19.134Z,37.66
2023-02-26T12:27:02.446Z,37.28
2023-02-26T12:29:53.843Z,38.69
2023-02-26T12:32:42.421Z,38.84
2023-02-26T12:35:39.911Z,38.93
2023-02-26T12:38:30.195Z,39.01
2023-02-26T12:41:28.144Z,40.27
2023-02-26T12:43:58.018Z,39.50
2023-02-26T12:46:35.461Z,38.79
2023-02-26T12:49:21.821Z,38.21
2023-02-26T12:52:09.506Z,39.01
2023-02-26T12:54:54.058Z,38.77
2023-02-26T12:57:43.715Z,38.25
2023-02-26T13:00:16.425Z,37.89
2023-02-26T13:03:02.541Z,37.40
2023-02-26T13:05:38.027Z,37.41
2023-02-26T13:08:29.273Z,37.75
2023-02-26T13:11:23.645Z,37.93
2023-02-26T13:14:23.422Z,37.37
2023-02-26T13:17:08.451Z,37.79
2023-02-26T13:19:55.250Z,37.11
2023-02-26T13:22:27.851Z,37.53
2023-02-26T13:25:04.206Z,37.55
2023-02-26T13:27:35.837Z,36.58
2023-02-26T13:30:27.062Z,36.66
2023-02-26T13:32:57.731Z,36.93
2023-02-26T13:35:40.926Z,36.74
2023-02-26T13:38:24.188Z,36.79
2023-02-26T13:41:02.533Z,37.19
2023-02-26T13:43:54.172Z,37.43
2023-02-26T13:46:36.396Z,37.61
2023-02-26T13:49:23.071Z,37.52
2023-02-26T13:51:53.498Z,37.03
2023-02-26T13:54:41.215Z,36.76
2023-02-26T13:57:33.432Z,37.19
2023-02-26T14:00:18.744Z,36.27
2023-02-26T14:02:47.941Z,35.81
2023-02-26T14:05:51.386Z,35.72
2023-02-26T14:08:22.078Z,34.35
2023-02-26T14:11:04.515Z,34.38
2023-02-26T14:13:41.209Z,33.98
2023-02-26T14:16:23.598Z,33.95
2023-02-26T14:18:52.395Z,33.19
2023-02-26T14:21:28.247Z,32.78
2023-02-26T14:24:02.120Z,33.28
2023-02-26T14:26:34.650Z,32.93
2023-02-26T14:29:04.210Z,33.13
2023-02-26T14:32:12.655Z,34.34
2023-02-26T14:35:12.435Z,34.51
2023-02-26T14:37:40.360Z,35.05
2023-02-26T14:40:13.857Z,34.16
2023-02-26T14:42:54.980Z,33.49
2023-02-26T14:45:41.418Z,33.78
2023-02-26T14:48:14.608Z,33.44
2023-02-26T14:51:10.370Z,33.49
2023-02-26T14:53:39.703Z,32.80
2023-02-26T14:56:19.056Z,33.80
2023-02-26T14:59:12.822Z,34.06
2023-02-26T15:01:51.949Z,35.10
2023-02-26T15:04:37.313Z,35.43
2023-02-26T15:07:25.404Z,36.45
2023-02-26T15:10:24.660Z,37.19
2023-02-26T15:13:03.715Z,38.21
2023-02-26T15:15:41.131Z,37.05
2023-02-26T15:18:22.836Z,37.11
2023-02-26T15:21:26.582Z,35.94
2023-02-26T15:23:59.364Z,35.62
2023-02-26T15:26:35.925Z,35.23
2023-02-26T15:29:09.875Z,35.57
2023-02-26T15:31:59.732Z,36.29
2023-02-26T15:34:26.456Z,36.56
2023-02-26T15:36:53.685Z,36.98
2023-02-26T15:39:23.408Z,37.35
2023-02-26T15:41:53.522Z,38.22
2023-02-26T15:44:26.777Z,37.70
2023-02-26T15:47:01.710Z,37.73
2023-02-26T15:49:40.882Z,38.49
2023-02-26T15:52:13.618Z,37.97
2023-02-26T15:54:52.097Z,37.08
2023-02-26T15:57:21.552Z,37.58
2023-02-26T15:59:52.678Z,37.30
2023-02-26T16:02:31.889Z,36.40
2023-02-26T16:04:58.661Z,36.02
2023-02-26T16:07:25.595Z,36.33
2023-02-26T16:09:54.284Z,36.97
2023-02-26T16:12:36.135Z,37.17
2023-02-26T16:15:11.087Z,37.61
2023-02-26T16:17:43.472Z,37.29
2023-02-26T16:20:17.931Z,37.07
2023-02-26T16:22:57.844Z,37.68
2023-02-26T16:25:55.419Z,37.40
2023-02-26T16:28:27.841Z,37.57
2023-02-26T16:30:59.129Z,37.26
2023-02-26T16:33:31.471Z,37.81
2023-02-26T16:36:10.484Z,37.91
2023-02-26T16:38:48.289Z,38.16
2023-02-26T16:41:15.728Z,38.20
2023-02-26T16:43:45.112Z,37.61
2023-02-26T16:46:16.899Z,37.78
2023-02-26T16:49:02.190Z,37.99
2023-02-26T16:51:34.312Z,38.37
2023-02-26T16:54:22.269Z,38.30
2023-02-26T16:56:58.237Z,38.95
2023-02-26T16:59:30.098Z,39.73
2023-02-26T17:02:04.127Z,40.35
2023-02-26T17:04:35.809Z,41.39
2023-02-26T17:07:06.007Z,42.30
2023-02-26T17:09:44.656Z,43.79
2023-02-26T17:12:23.247Z,44.86
2023-02-26T17:14:56.197Z,46.34
2023-02-26T17:17:23.993Z,46.95
2023-02-26T17:19:50.558Z,46.82
2023-02-26T17:22:24.154Z,46.01
2023-02-26T17:24:51.251Z,45.18
2023-02-26T17:27:32.381Z,44.28
2023-02-26T17:30:02.446Z,44.15
2023-02-26T17:32:29.031Z,43.16
2023-02-26T17:34:55.579Z,42.51
2023-02-26T17:37:25.282Z,42.42
2023-02-26T17:39:51.849Z,42.01
2023-02-26T17:42:19.901Z,42.15
2023-02-26T17:44:49.641Z,42.46
2023-02-26T17:47:23.978Z,42.37
2023-02-26T17:49:50.518Z,42.32
2023-02-26T17:52:17.137Z,42.69
2023-02-26T17:54:43.795Z,42.02
2023-02-26T17:57:17.300Z,42.30
2023-02-26T17:59:43.918Z,42.26
2023-02-26T18:02:18.031Z,42.43
2023-02-26T18:04:44.812Z,42.51
2023-02-26T18:07:16.324Z,43.53
2023-02-26T18:09:43.884Z,42.54
2023-02-26T18:12:16.186Z,46.45
2023-02-26T18:14:43.119Z,42.04
2023-02-26T18:17:13.680Z,43.93
2023-02-26T18:19:41.712Z,43.00
2023-02-26T18:22:15.653Z,42.18
2023-02-26T18:24:42.153Z,42.24
2023-02-26T18:27:15.351Z,42.80
2023-02-26T18:29:43.144Z,42.92
2023-02-26T18:32:14.041Z,43.41
2023-02-26T18:34:40.862Z,43.62
2023-02-26T18:37:13.541Z,43.71
2023-02-26T18:39:40.382Z,43.96
2023-02-26T18:42:06.943Z,43.93
2023-02-26T18:44:33.498Z,43.53
2023-02-26T18:47:00.226Z,43.82
2023-02-26T18:49:26.729Z,43.48
2023-02-26T18:51:53.536Z,44.45
2023-02-26T18:54:20.554Z,44.02
2023-02-26T18:56:49.820Z,44.83
2023-02-26T18:59:16.300Z,44.15
2023-02-26T19:01:44.202Z,44.38
2023-02-26T19:04:10.748Z,44.09
2023-02-26T19:06:37.278Z,43.81
2023-02-26T19:09:04.698Z,43.75
2023-02-26T19:11:31.622Z,44.32
2023-02-26T19:13:58.221Z,44.05
2023-02-26T19:16:24.725Z,44.27
2023-02-26T19:18:51.422Z,44.50
2023-02-26T19:21:18.077Z,45.67
2023-02-26T19:23:44.798Z,45.41
2023-02-26T19:26:11.425Z,45.88
2023-02-26T19:28:38.115Z,45.68
2023-02-26T19:31:04.922Z,45.98
2023-02-26T19:33:31.700Z,46.15
2023-02-26T19:35:58.329Z,46.15
2023-02-26T19:38:26.268Z,46.31
2023-02-26T19:40:52.860Z,47.17
2023-02-26T19:43:19.376Z,46.49
2023-02-26T19:45:45.862Z,46.87
2023-02-26T19:48:12.419Z,47.91
2023-02-26T19:50:38.977Z,48.37
2023-02-26T19:53:05.579Z,48.03
2023-02-26T19:55:32.120Z,48.09
2023-02-26T19:57:58.745Z,49.05
2023-02-26T20:00:25.438Z,48.97
2023-02-26T20:02:56.272Z,49.61
2023-02-26T20:05:22.858Z,49.42
2023-02-26T20:07:49.360Z,50.14
2023-02-26T20:10:19.717Z,49.86
2023-02-26T20:12:46.303Z,50.07
2023-02-26T20:15:16.172Z,50.38
2023-02-26T20:17:43.018Z,50.62
2023-02-26T20:20:10.176Z,50.51
2023-02-26T20:22:36.746Z,50.49
2023-02-26T20:25:03.499Z,50.74
2023-02-26T20:27:32.638Z,50.90
2023-02-26T20:29:59.147Z,50.59
2023-02-26T20:32:25.758Z,50.01
2023-02-26T20:34:52.318Z,49.39
2023-02-26T20:37:18.976Z,49.27
2023-02-26T20:39:45.492Z,49.51
2023-02-26T20:42:12.348Z,48.86
2023-02-26T20:44:38.916Z,48.83
2023-02-26T20:47:05.423Z,49.33
2023-02-26T20:49:31.951Z,48.72
2023-02-26T20:51:58.457Z,49.56
2023-02-26T20:54:25.306Z,48.98
2023-02-26T20:56:51.953Z,49.30
2023-02-26T20:59:21.072Z,48.22
2023-02-26T21:01:49.219Z,50.25
2023-02-26T21:04:15.872Z,50.25
2023-02-26T21:06:44.834Z,51.14
2023-02-26T21:09:20.062Z,51.74
2023-02-26T21:11:46.754Z,52.59
2023-02-26T21:14:13.364Z,53.26
2023-02-26T21:16:40.161Z,53.92
2023-02-26T21:19:07.059Z,54.26
2023-02-26T21:21:34.170Z,53.89
2023-02-26T21:24:00.995Z,54.38
2023-02-26T21:26:29.957Z,54.79
2023-02-26T21:28:56.577Z,53.78
2023-02-26T21:31:23.280Z,54.77
2023-02-26T21:33:49.901Z,56.36
2023-02-26T21:36:21.939Z,56.68
2023-02-26T21:38:50.955Z,56.42
2023-02-26T21:41:18.018Z,56.82
2023-02-26T21:43:51.983Z,56.64
2023-02-26T21:46:18.534Z,57.61
2023-02-26T21:48:45.094Z,57.17
2023-02-26T21:51:12.263Z,57.90
2023-02-26T21:53:40.705Z,58.19
2023-02-26T21:56:07.193Z,58.59
2023-02-26T21:58:33.769Z,57.43
2023-02-26T22:01:02.677Z,57.09
2023-02-26T22:03:29.223Z,56.94
2023-02-26T22:05:55.791Z,55.88
2023-02-26T22:08:22.418Z,55.96
2023-02-26T22:10:48.930Z,55.37
2023-02-26T22:13:15.487Z,55.39
2023-02-26T22:15:42.421Z,55.91
2023-02-26T22:18:09.095Z,56.04
2023-02-26T22:20:35.769Z,56.15
2023-02-26T22:23:02.422Z,55.39
2023-02-26T22:25:31.871Z,55.67
2023-02-26T22:27:58.841Z,55.33
2023-02-26T22:30:25.586Z,55.98
2023-02-26T22:32:52.196Z,55.45
2023-02-26T22:35:18.769Z,55.87
2023-02-26T22:37:45.370Z,55.95
2023-02-26T22:40:13.127Z,55.77
2023-02-26T22:42:41.289Z,54.65
2023-02-26T22:45:09.274Z,54.94
2023-02-26T22:47:37.074Z,54.13
2023-02-26T22:50:05.305Z,54.19
2023-02-26T22:52:31.839Z,54.28
2023-02-26T22:55:02.062Z,54.16
2023-02-26T22:57:28.765Z,53.99
2023-02-26T22:59:55.397Z,53.63
2023-02-26T23:02:22.333Z,53.50
2023-02-26T23:04:48.847Z,54.00
2023-02-26T23:07:18.071Z,54.01
2023-02-26T23:09:44.709Z,53.51
2023-02-26T23:12:13.716Z,52.70
2023-02-26T23:14:40.340Z,53.40
2023-02-26T23:17:06.915Z,53.04
2023-02-26T23:19:33.468Z,53.01
2023-02-26T23:22:00.588Z,54.07
2023-02-26T23:24:27.150Z,53.99
2023-02-26T23:26:53.809Z,53.54
2023-02-26T23:29:20.381Z,53.64
2023-02-26T23:31:47.077Z,53.36
2023-02-26T23:34:13.666Z,53.53
2023-02-26T23:36:40.175Z,53.51
2023-02-26T23:39:06.727Z,53.08
2023-02-26T23:41:33.228Z,53.86
2023-02-26T23:43:59.781Z,53.71
2023-02-26T23:46:26.799Z,53.95
2023-02-26T23:48:53.322Z,54.07
2023-02-26T23:51:19.994Z,54.08
2023-02-26T23:53:46.527Z,53.51
2023-02-26T23:56:13.008Z,53.70
2023-02-26T23:58:39.509Z,53.13
